createdAt,value
2022-10-12T00:01:51.316Z,2.22
2022-10-12T00:04:18.196Z,2.47
2022-10-12T00:06:44.888Z,2.47
2022-10-12T00:09:11.755Z,2.50
2022-10-12T00:11:41.280Z,2.30
2022-10-12T00:14:08.504Z,3.00
2022-10-12T00:16:35.245Z,2.40
2022-10-12T00:19:02.157Z,2.50
2022-10-12T00:21:30.588Z,2.40
2022-10-12T00:23:59.810Z,2.28
2022-10-12T00:26:28.020Z,2.13
2022-10-12T00:28:57.562Z,2.13
2022-10-12T00:31:24.930Z,2.33
2022-10-12T00:33:52.005Z,2.38
2022-10-12T00:36:27.174Z,2.10
2022-10-12T00:38:55.690Z,2.20
2022-10-12T00:41:25.553Z,1.75
2022-10-12T00:43:57.963Z,1.63
2022-10-12T00:46:37.682Z,1.70
2022-10-12T00:49:24.827Z,1.45
2022-10-12T00:51:54.551Z,1.50
2022-10-12T00:54:25.341Z,1.90
2022-10-12T00:56:54.043Z,1.85
2022-10-12T00:59:26.192Z,1.70
2022-10-12T01:01:53.409Z,1.40
2022-10-12T01:04:21.911Z,1.42
2022-10-12T01:06:48.695Z,1.40
2022-10-12T01:09:15.594Z,1.45
2022-10-12T01:11:42.542Z,1.20
2022-10-12T01:14:09.713Z,1.27
2022-10-12T01:16:44.592Z,1.40
2022-10-12T01:21:46.598Z,1.20
2022-10-12T01:24:35.968Z,1.00
2022-10-12T01:27:27.282Z,0.93
2022-10-12T01:30:06.529Z,0.98
2022-10-12T01:32:53.517Z,1.25
2022-10-12T01:35:38.019Z,1.40
2022-10-12T01:41:01.839Z,1.23
2022-10-12T01:43:37.963Z,1.27
2022-10-12T01:46:45.671Z,1.10
2022-10-12T01:49:14.130Z,1.20
2022-10-12T01:52:10.105Z,1.33
2022-10-12T01:55:01.009Z,1.33
2022-10-12T01:57:54.910Z,1.23
2022-10-12T02:00:21.822Z,2.08
2022-10-12T02:03:15.394Z,1.95
2022-10-12T02:06:28.592Z,1.90
2022-10-12T02:09:14.367Z,1.95
2022-10-12T02:11:43.238Z,1.88
2022-10-12T02:14:19.805Z,1.77
2022-10-12T02:16:51.435Z,1.80
2022-10-12T02:19:23.812Z,2.05
2022-10-12T02:21:51.832Z,1.83
2022-10-12T02:24:19.565Z,1.85
2022-10-12T02:26:48.400Z,1.52
2022-10-12T02:29:20.232Z,1.63
2022-10-12T02:32:29.689Z,1.60
2022-10-12T02:35:16.663Z,1.60
2022-10-12T02:38:18.472Z,1.58
2022-10-12T02:40:53.045Z,1.80
2022-10-12T02:43:28.823Z,2.10
2022-10-12T02:45:57.804Z,2.03
2022-10-12T02:48:25.107Z,1.70
2022-10-12T02:50:56.839Z,1.90
2022-10-12T02:53:25.725Z,1.63
2022-10-12T02:55:56.353Z,1.70
2022-10-12T02:58:23.232Z,1.85
2022-10-12T03:00:50.016Z,1.60
2022-10-12T03:03:16.801Z,1.70
2022-10-12T03:05:43.646Z,2.00
2022-10-12T03:08:10.599Z,1.90
2022-10-12T03:10:37.815Z,1.70
2022-10-12T03:13:04.789Z,1.92
2022-10-12T03:15:32.068Z,1.98
2022-10-12T03:17:59.035Z,1.80
2022-10-12T03:20:25.975Z,2.28
2022-10-12T03:22:52.898Z,2.10
2022-10-12T03:25:20.309Z,2.10
2022-10-12T03:27:47.196Z,1.90
2022-10-12T03:30:14.975Z,2.00
2022-10-12T03:32:41.639Z,1.98
2022-10-12T03:35:09.971Z,2.00
2022-10-12T03:37:37.952Z,1.90
2022-10-12T03:40:06.101Z,1.90
2022-10-12T03:42:33.166Z,1.80
2022-10-12T03:45:00.013Z,1.70
2022-10-12T03:47:26.899Z,1.88
2022-10-12T03:49:54.569Z,1.88
2022-10-12T03:52:21.351Z,1.83
2022-10-12T03:54:48.121Z,2.00
2022-10-12T03:57:14.902Z,2.20
2022-10-12T03:59:41.630Z,2.20
2022-10-12T04:02:10.231Z,2.70
2022-10-12T04:04:40.096Z,2.47
2022-10-12T04:07:07.224Z,2.97
2022-10-12T04:09:34.034Z,3.00
2022-10-12T04:12:00.934Z,2.80
2022-10-12T04:14:28.072Z,2.90
2022-10-12T04:16:55.198Z,2.83
2022-10-12T04:19:22.561Z,3.22
2022-10-12T04:21:49.469Z,3.08
2022-10-12T04:24:16.214Z,3.47
2022-10-12T04:26:43.171Z,3.10
2022-10-12T04:29:13.184Z,3.80
2022-10-12T04:31:41.019Z,2.83
2022-10-12T04:34:09.166Z,2.80
2022-10-12T04:36:36.053Z,2.58
2022-10-12T04:39:03.101Z,3.00
2022-10-12T04:41:30.266Z,2.50
2022-10-12T04:43:57.777Z,2.53
2022-10-12T04:46:24.664Z,3.00
2022-10-12T04:48:51.715Z,2.70
2022-10-12T04:51:19.304Z,2.85
2022-10-12T04:53:46.307Z,3.03
2022-10-12T04:56:13.034Z,2.88
2022-10-12T04:58:39.934Z,3.53
2022-10-12T05:01:06.946Z,3.15
2022-10-12T05:03:36.086Z,2.75
2022-10-12T05:06:07.029Z,2.90
2022-10-12T05:08:34.020Z,2.95
2022-10-12T05:11:00.869Z,2.80
2022-10-12T05:13:28.892Z,3.00
2022-10-12T05:15:55.954Z,3.35
2022-10-12T05:18:22.963Z,3.80
2022-10-12T05:20:52.227Z,3.45
2022-10-12T05:23:22.970Z,3.45
2022-10-12T05:25:49.905Z,3.40
2022-10-12T05:28:17.050Z,3.78
2022-10-12T05:30:43.793Z,3.63
2022-10-12T05:33:10.982Z,3.80
2022-10-12T05:35:38.253Z,3.85
2022-10-12T05:38:05.077Z,3.75
2022-10-12T05:40:31.768Z,4.10
2022-10-12T05:42:58.617Z,3.78
2022-10-12T05:45:25.363Z,5.25
2022-10-12T05:47:52.119Z,5.70
2022-10-12T05:50:18.944Z,5.85
2022-10-12T05:52:45.794Z,5.68
2022-10-12T05:55:13.177Z,5.68
2022-10-12T05:57:40.500Z,6.47
2022-10-12T06:00:08.939Z,6.60
2022-10-12T06:02:36.273Z,6.95
2022-10-12T06:05:03.955Z,6.55
2022-10-12T06:07:30.981Z,6.78
2022-10-12T06:09:58.376Z,7.15
2022-10-12T06:12:25.126Z,7.05
2022-10-12T06:14:52.413Z,8.50
2022-10-12T06:17:19.531Z,8.02
2022-10-12T06:19:46.307Z,8.07
2022-10-12T06:22:13.049Z,6.93
2022-10-12T06:24:40.026Z,6.97
2022-10-12T06:27:06.952Z,6.63
2022-10-12T06:29:34.116Z,7.88
2022-10-12T06:32:01.123Z,7.93
2022-10-12T06:34:27.930Z,6.85
2022-10-12T06:36:58.235Z,6.90
2022-10-12T06:39:28.325Z,6.20
2022-10-12T06:41:54.974Z,5.25
2022-10-12T06:44:25.291Z,4.97
2022-10-12T06:46:53.121Z,4.97
2022-10-12T06:49:21.302Z,4.55
2022-10-12T06:51:48.084Z,4.85
2022-10-12T06:54:14.849Z,4.97
2022-10-12T06:56:41.738Z,4.63
2022-10-12T06:59:08.715Z,4.50
2022-10-12T07:01:35.443Z,4.15
2022-10-12T07:04:02.342Z,3.80
2022-10-12T07:06:29.110Z,3.85
2022-10-12T07:08:55.972Z,3.90
2022-10-12T07:11:23.063Z,4.65
2022-10-12T07:13:49.945Z,4.90
2022-10-12T07:16:16.700Z,5.03
2022-10-12T07:18:44.554Z,4.20
2022-10-12T07:21:12.330Z,5.15
2022-10-12T07:23:43.650Z,6.10
2022-10-12T07:26:11.851Z,6.95
2022-10-12T07:28:38.696Z,13.23
2022-10-12T07:31:07.892Z,4.82
2022-10-12T07:33:35.941Z,3.60
2022-10-12T07:36:13.889Z,3.72
2022-10-12T07:38:45.292Z,3.67
2022-10-12T07:41:12.746Z,3.70
2022-10-12T07:43:39.630Z,3.42
2022-10-12T07:46:06.511Z,4.25
2022-10-12T07:48:34.824Z,3.67
2022-10-12T07:51:06.406Z,4.15
2022-10-12T07:53:38.385Z,4.05
2022-10-12T07:56:07.675Z,4.00
2022-10-12T07:58:34.398Z,5.07
2022-10-12T08:01:08.667Z,4.82
2022-10-12T08:06:13.653Z,4.90
2022-10-12T08:08:40.835Z,4.70
2022-10-12T08:11:08.235Z,4.50
2022-10-12T08:13:35.538Z,4.85
2022-10-12T08:16:03.876Z,4.45
2022-10-12T08:18:31.113Z,4.38
2022-10-12T08:20:58.366Z,4.20
2022-10-12T08:23:25.934Z,4.63
2022-10-12T08:25:54.343Z,5.20
2022-10-12T08:28:21.786Z,4.53
2022-10-12T08:30:49.120Z,7.82
2022-10-12T08:33:16.450Z,6.22
2022-10-12T08:35:44.324Z,5.88
2022-10-12T08:38:12.540Z,6.10
2022-10-12T08:41:01.413Z,5.63
2022-10-12T08:43:43.965Z,6.30
2022-10-12T08:46:11.218Z,6.07
2022-10-12T08:48:59.596Z,6.25
2022-10-12T08:51:28.706Z,7.55
2022-10-12T08:54:11.374Z,6.80
2022-10-12T08:56:40.437Z,8.27
2022-10-12T08:59:15.291Z,5.68
2022-10-12T09:02:25.937Z,4.88
2022-10-12T09:05:06.971Z,5.00
2022-10-12T09:07:50.135Z,4.60
2022-10-12T09:10:54.179Z,4.27
2022-10-12T09:13:51.151Z,3.78
2022-10-12T09:16:30.184Z,3.78
2022-10-12T09:18:59.244Z,4.00
2022-10-12T09:21:28.174Z,4.25
2022-10-12T09:23:58.542Z,3.72
2022-10-12T09:26:39.514Z,3.75
2022-10-12T09:29:23.394Z,4.18
2022-10-12T09:32:16.900Z,3.80
2022-10-12T09:34:44.479Z,3.95
2022-10-12T09:37:25.758Z,4.43
2022-10-12T09:39:52.896Z,4.00
2022-10-12T09:42:20.121Z,3.70
2022-10-12T09:44:49.819Z,3.35
2022-10-12T09:47:29.206Z,3.22
2022-10-12T09:50:04.525Z,3.55
2022-10-12T09:52:41.870Z,3.30
2022-10-12T09:55:37.978Z,3.53
2022-10-12T09:58:04.910Z,3.40
2022-10-12T10:00:35.391Z,3.08
2022-10-12T10:03:02.725Z,3.33
2022-10-12T10:05:35.259Z,3.13
2022-10-12T10:08:39.606Z,3.30
2022-10-12T10:11:06.453Z,3.40
2022-10-12T10:13:34.013Z,3.72
2022-10-12T10:16:09.411Z,3.67
2022-10-12T10:18:38.482Z,3.38
2022-10-12T10:21:08.877Z,3.78
2022-10-12T10:23:57.996Z,3.78
2022-10-12T10:26:26.352Z,3.60
2022-10-12T10:29:24.608Z,3.35
2022-10-12T10:32:29.136Z,3.35
2022-10-12T10:35:32.593Z,3.70
2022-10-12T10:37:59.780Z,2.95
2022-10-12T10:40:30.137Z,3.90
2022-10-12T10:43:06.229Z,3.40
2022-10-12T10:45:36.132Z,2.80
2022-10-12T10:48:10.719Z,3.25
2022-10-12T10:50:39.560Z,3.25
2022-10-12T10:53:14.802Z,3.22
2022-10-12T10:55:46.166Z,3.40
2022-10-12T10:58:25.386Z,3.00
2022-10-12T11:00:53.954Z,3.42
2022-10-12T11:03:25.657Z,2.97
2022-10-12T11:05:57.335Z,2.75
2022-10-12T11:08:29.539Z,3.10
2022-10-12T11:11:02.932Z,3.38
2022-10-12T11:13:45.907Z,3.63
2022-10-12T11:16:36.499Z,3.30
2022-10-12T11:19:15.589Z,3.65
2022-10-12T11:21:53.861Z,3.63
2022-10-12T11:24:35.797Z,3.00
2022-10-12T11:27:26.174Z,3.10
2022-10-12T11:30:08.317Z,3.55
2022-10-12T11:32:38.919Z,3.08
2022-10-12T11:35:07.926Z,3.10
2022-10-12T11:37:45.831Z,3.10
2022-10-12T11:40:55.487Z,3.58
2022-10-12T11:43:22.926Z,3.70
2022-10-12T11:45:54.201Z,3.65
2022-10-12T11:48:27.343Z,3.58
2022-10-12T11:51:02.867Z,3.67
2022-10-12T11:54:01.739Z,3.60
2022-10-12T11:56:43.091Z,4.00
2022-10-12T11:59:41.149Z,3.20
2022-10-12T12:02:44.550Z,3.63
2022-10-12T12:05:16.528Z,3.28
2022-10-12T12:07:52.177Z,3.97
2022-10-12T12:10:43.510Z,3.78
2022-10-12T12:13:28.908Z,3.90
2022-10-12T12:16:22.617Z,3.75
2022-10-12T12:19:18.466Z,3.70
2022-10-12T12:22:36.351Z,4.07
2022-10-12T12:25:28.989Z,3.60
2022-10-12T12:28:06.521Z,3.72
2022-10-12T12:30:37.535Z,3.25
2022-10-12T12:33:28.486Z,3.47
2022-10-12T12:36:04.008Z,3.38
2022-10-12T12:38:36.262Z,3.58
2022-10-12T12:41:17.826Z,3.40
2022-10-12T12:43:56.945Z,3.40
2022-10-12T12:46:26.921Z,3.30
2022-10-12T12:48:58.228Z,3.38
2022-10-12T12:51:38.562Z,3.38
2022-10-12T12:54:17.232Z,3.50
2022-10-12T12:57:15.423Z,3.53
2022-10-12T13:00:11.175Z,3.42
2022-10-12T13:03:16.789Z,3.60
2022-10-12T13:06:01.046Z,3.85
2022-10-12T13:09:01.301Z,3.65
2022-10-12T13:11:52.779Z,3.13
2022-10-12T13:14:38.219Z,3.72
2022-10-12T13:17:33.368Z,3.50
2022-10-12T13:20:06.888Z,3.97
2022-10-12T13:22:35.559Z,5.07
2022-10-12T13:25:06.470Z,4.13
2022-10-12T13:27:42.518Z,3.60
2022-10-12T13:30:52.842Z,3.70
2022-10-12T13:33:29.958Z,3.88
2022-10-12T13:36:04.310Z,3.30
2022-10-12T13:38:31.909Z,3.50
2022-10-12T13:41:17.119Z,4.20
2022-10-12T13:43:56.772Z,3.72
2022-10-12T13:46:46.407Z,4.30
2022-10-12T13:49:29.026Z,3.15
2022-10-12T13:52:16.648Z,3.85
2022-10-12T13:54:47.838Z,3.58
2022-10-12T13:57:50.466Z,4.10
2022-10-12T14:00:28.588Z,4.03
2022-10-12T14:03:04.225Z,4.15
2022-10-12T14:05:33.419Z,3.70
2022-10-12T14:08:04.010Z,3.97
2022-10-12T14:10:33.844Z,3.55
2022-10-12T14:13:02.508Z,4.43
2022-10-12T14:15:34.598Z,3.83
2022-10-12T14:18:01.555Z,3.38
2022-10-12T14:20:35.359Z,3.78
2022-10-12T14:23:04.793Z,4.07
2022-10-12T14:25:32.692Z,3.72
2022-10-12T14:28:01.873Z,3.88
2022-10-12T14:30:42.912Z,3.63
2022-10-12T14:33:30.557Z,3.65
2022-10-12T14:36:25.294Z,10.35
2022-10-12T14:38:53.104Z,5.10
2022-10-12T14:41:38.723Z,4.30
2022-10-12T14:44:18.341Z,3.92
2022-10-12T14:46:57.258Z,4.20
2022-10-12T14:49:26.626Z,4.07
2022-10-12T14:51:54.964Z,5.00
2022-10-12T14:54:22.483Z,4.63
2022-10-12T14:56:50.982Z,4.20
2022-10-12T14:59:18.055Z,4.95
2022-10-12T15:01:47.573Z,4.57
2022-10-12T15:04:18.637Z,3.95
2022-10-12T15:06:50.549Z,4.40
2022-10-12T15:09:18.772Z,4.72
2022-10-12T15:11:45.584Z,3.75
2022-10-12T15:14:12.788Z,4.70
2022-10-12T15:20:17.380Z,4.15
2022-10-12T15:22:45.106Z,4.07
2022-10-12T15:25:24.476Z,3.85
2022-10-12T15:27:51.651Z,3.88
2022-10-12T15:30:18.521Z,4.13
2022-10-12T15:32:46.036Z,4.05
2022-10-12T15:35:19.707Z,4.22
2022-10-12T15:37:47.124Z,4.30
2022-10-12T15:40:14.226Z,4.43
2022-10-12T15:42:43.028Z,4.28
2022-10-12T15:45:27.413Z,4.45
2022-10-12T15:47:54.983Z,4.85
2022-10-12T15:50:24.802Z,4.65
2022-10-12T15:52:51.813Z,4.50
2022-10-12T15:55:21.691Z,4.07
2022-10-12T15:57:48.991Z,4.97
2022-10-12T16:00:17.529Z,3.95
2022-10-12T16:02:44.612Z,4.32
2022-10-12T16:05:27.057Z,4.70
2022-10-12T16:07:54.955Z,4.65
2022-10-12T16:10:27.687Z,4.68
2022-10-12T16:12:55.317Z,4.60
2022-10-12T16:15:25.268Z,4.57
2022-10-12T16:17:52.402Z,4.65
2022-10-12T16:20:19.428Z,4.50
2022-10-12T16:22:47.014Z,4.70
2022-10-12T16:25:17.171Z,4.63
2022-10-12T16:27:45.301Z,4.07
2022-10-12T16:30:12.876Z,4.28
2022-10-12T16:32:39.608Z,4.38
2022-10-12T16:35:07.478Z,4.40
2022-10-12T16:37:35.074Z,3.72
2022-10-12T16:40:03.867Z,4.30
2022-10-12T16:42:30.925Z,4.10
2022-10-12T16:44:58.379Z,3.60
2022-10-12T16:47:25.745Z,4.50
2022-10-12T16:49:54.321Z,3.90
2022-10-12T16:52:25.023Z,4.20
2022-10-12T16:54:55.493Z,4.10
2022-10-12T16:57:23.650Z,4.32
2022-10-12T16:59:52.594Z,4.18
2022-10-12T17:02:19.911Z,4.47
2022-10-12T17:04:47.080Z,4.13
2022-10-12T17:07:14.602Z,4.60
2022-10-12T17:09:41.249Z,4.70
2022-10-12T17:12:08.292Z,5.38
2022-10-12T17:14:35.196Z,6.50
2022-10-12T17:17:01.901Z,6.40
2022-10-12T17:19:32.082Z,8.02
2022-10-12T17:22:01.113Z,9.15
2022-10-12T17:24:31.181Z,8.57
2022-10-12T17:26:59.107Z,7.95
2022-10-12T17:29:27.682Z,8.27
2022-10-12T17:31:55.333Z,7.00
2022-10-12T17:34:25.021Z,7.25
2022-10-12T17:36:53.776Z,7.20
2022-10-12T17:39:21.465Z,6.50
2022-10-12T17:41:48.706Z,6.53
2022-10-12T17:44:15.957Z,5.65
2022-10-12T17:46:45.710Z,5.40
2022-10-12T17:49:15.135Z,5.03
2022-10-12T17:51:42.321Z,4.93
2022-10-12T17:54:13.294Z,5.35
2022-10-12T17:56:40.229Z,4.90
2022-10-12T17:59:07.177Z,4.57
2022-10-12T18:01:37.072Z,4.55
2022-10-12T18:04:05.081Z,5.50
2022-10-12T18:06:33.322Z,4.68
2022-10-12T18:09:05.159Z,4.53
2022-10-12T18:11:32.892Z,4.85
2022-10-12T18:14:00.045Z,5.50
2022-10-12T18:16:30.221Z,6.03
2022-10-12T18:18:59.142Z,5.05
2022-10-12T18:21:28.414Z,4.93
2022-10-12T18:23:55.998Z,4.88
2022-10-12T18:26:23.262Z,4.88
2022-10-12T18:28:54.040Z,4.68
2022-10-12T18:31:26.151Z,5.30
2022-10-12T18:33:53.978Z,4.60
2022-10-12T18:36:20.904Z,5.80
2022-10-12T18:38:48.112Z,5.47
2022-10-12T18:41:17.240Z,5.35
2022-10-12T18:43:44.410Z,5.68
2022-10-12T18:46:14.552Z,5.28
2022-10-12T18:48:41.578Z,5.22
2022-10-12T18:51:15.743Z,5.35
2022-10-12T18:53:42.522Z,5.65
2022-10-12T18:56:10.760Z,5.45
2022-10-12T18:58:42.165Z,5.60
2022-10-12T19:01:20.961Z,5.97
2022-10-12T19:03:49.360Z,5.47
2022-10-12T19:06:19.453Z,5.88
2022-10-12T19:08:48.287Z,5.70
2022-10-12T19:11:17.708Z,5.40
2022-10-12T19:13:51.139Z,5.38
2022-10-12T19:16:18.186Z,5.93
2022-10-12T19:18:45.316Z,5.72
2022-10-12T19:21:14.728Z,5.65
2022-10-12T19:23:41.898Z,5.95
2022-10-12T19:26:11.611Z,5.50
2022-10-12T19:28:38.771Z,6.43
2022-10-12T19:31:16.839Z,6.00
2022-10-12T19:33:43.727Z,5.63
2022-10-12T19:36:11.915Z,5.40
2022-10-12T19:38:39.185Z,5.20
2022-10-12T19:41:06.349Z,5.22
2022-10-12T19:43:34.545Z,5.10
2022-10-12T19:46:06.659Z,5.25
2022-10-12T19:48:34.513Z,5.78
2022-10-12T19:51:03.357Z,6.10
2022-10-12T19:53:31.145Z,6.20
2022-10-12T19:56:02.021Z,7.40
2022-10-12T19:58:29.094Z,7.47
2022-10-12T20:01:03.273Z,7.05
2022-10-12T20:03:30.258Z,6.88
2022-10-12T20:05:57.097Z,8.50
2022-10-12T20:08:23.978Z,7.90
2022-10-12T20:10:50.943Z,7.25
2022-10-12T20:13:17.758Z,7.03
2022-10-12T20:15:44.558Z,6.78
2022-10-12T20:18:11.591Z,7.13
2022-10-12T20:20:44.490Z,7.93
2022-10-12T20:23:11.264Z,7.50
2022-10-12T20:25:45.726Z,7.22
2022-10-12T20:28:13.262Z,7.72
2022-10-12T20:30:41.003Z,7.20
2022-10-12T20:33:08.347Z,7.13
2022-10-12T20:35:35.914Z,6.55
2022-10-12T20:38:03.414Z,8.30
2022-10-12T20:40:30.092Z,6.78
2022-10-12T20:42:57.072Z,8.60
2022-10-12T20:45:23.933Z,9.63
2022-10-12T20:47:50.686Z,8.63
2022-10-12T20:50:17.731Z,7.68
2022-10-12T20:52:44.477Z,7.28
2022-10-12T20:55:11.623Z,7.13
2022-10-12T20:57:38.678Z,7.90
2022-10-12T21:00:06.728Z,7.85
2022-10-12T21:02:38.353Z,7.78
2022-10-12T21:05:06.407Z,8.30
2022-10-12T21:07:33.826Z,8.68
2022-10-12T21:10:00.663Z,9.13
2022-10-12T21:12:27.623Z,9.15
2022-10-12T21:14:55.122Z,9.68
2022-10-12T21:17:21.894Z,8.93
2022-10-12T21:19:50.340Z,8.63
2022-10-12T21:22:17.502Z,9.55
2022-10-12T21:24:45.053Z,9.23
2022-10-12T21:27:11.945Z,8.55
2022-10-12T21:29:38.756Z,8.38
2022-10-12T21:32:05.739Z,8.50
2022-10-12T21:34:32.475Z,8.43
2022-10-12T21:36:59.189Z,8.45
2022-10-12T21:39:26.152Z,8.02
2022-10-12T21:41:53.006Z,7.93
2022-10-12T21:44:19.880Z,8.40
2022-10-12T21:46:46.740Z,8.43
2022-10-12T21:49:13.425Z,8.77
2022-10-12T21:51:40.695Z,8.48
2022-10-12T21:54:07.686Z,8.52
2022-10-12T21:56:36.309Z,8.20
2022-10-12T21:59:04.611Z,8.15
2022-10-12T22:01:37.062Z,7.70
2022-10-12T22:04:06.727Z,7.45
2022-10-12T22:06:34.112Z,7.50
2022-10-12T22:09:06.058Z,7.30
2022-10-12T22:11:33.914Z,6.82
2022-10-12T22:14:03.074Z,6.45
2022-10-12T22:16:29.975Z,6.20
2022-10-12T22:18:58.758Z,6.40
2022-10-12T22:21:25.930Z,6.35
2022-10-12T22:23:52.897Z,5.75
2022-10-12T22:26:21.592Z,5.63
2022-10-12T22:28:48.924Z,5.88
2022-10-12T22:31:17.701Z,6.97
2022-10-12T22:33:45.795Z,6.95
2022-10-12T22:36:13.961Z,7.40
2022-10-12T22:38:40.880Z,8.13
2022-10-12T22:41:10.706Z,7.72
2022-10-12T22:43:38.000Z,7.85
2022-10-12T22:46:05.234Z,8.18
2022-10-12T22:48:32.213Z,8.52
2022-10-12T22:50:59.622Z,8.07
2022-10-12T22:53:26.735Z,8.77
2022-10-12T22:56:00.099Z,9.68
2022-10-12T22:58:27.966Z,9.40
2022-10-12T23:01:06.353Z,9.80
2022-10-12T23:03:34.011Z,9.40
2022-10-12T23:06:00.981Z,9.55
2022-10-12T23:08:28.725Z,10.77
2022-10-12T23:10:56.050Z,10.57
2022-10-12T23:13:22.797Z,10.48
2022-10-12T23:15:49.586Z,10.38
2022-10-12T23:18:16.391Z,10.20
2022-10-12T23:20:43.164Z,10.48
2022-10-12T23:23:09.837Z,10.68
2022-10-12T23:25:36.621Z,10.13
2022-10-12T23:28:03.605Z,10.60
2022-10-12T23:30:31.545Z,10.68
2022-10-12T23:32:58.326Z,12.00
2022-10-12T23:35:25.080Z,12.07
2022-10-12T23:37:52.427Z,11.98
2022-10-12T23:40:19.422Z,11.38
2022-10-12T23:42:46.191Z,11.18
2022-10-12T23:45:12.960Z,12.18
2022-10-12T23:47:39.654Z,11.15
2022-10-12T23:50:06.700Z,12.43
2022-10-12T23:52:33.451Z,11.20
2022-10-12T23:55:00.155Z,10.95
2022-10-12T23:57:46.327Z,11.05
